sensor_id;sensor_type;location;lat;lon;timestamp;P1;durP1;ratioP1;P2;durP2;ratioP2
34836;SDS011;21053;50.848;4.652;2023-04-03T00:00:56;15.88;;;8.85;;
34836;SDS011;21053;50.848;4.652;2023-04-03T00:03:23;17.30;;;8.63;;
34836;SDS011;21053;50.848;4.652;2023-04-03T00:05:50;20.48;;;9.48;;
34836;SDS011;21053;50.848;4.652;2023-04-03T00:08:18;22.00;;;8.40;;
34836;SDS011;21053;50.848;4.652;2023-04-03T00:10:44;19.38;;;9.02;;
34836;SDS011;21053;50.848;4.652;2023-04-03T00:13:11;13.45;;;8.18;;
34836;SDS011;21053;50.848;4.652;2023-04-03T00:15:37;15.75;;;8.18;;
34836;SDS011;21053;50.848;4.652;2023-04-03T00:18:04;18.50;;;8.27;;
34836;SDS011;21053;50.848;4.652;2023-04-03T00:20:33;15.25;;;8.23;;
34836;SDS011;21053;50.848;4.652;2023-04-03T00:25:30;14.70;;;7.55;;
34836;SDS011;21053;50.848;4.652;2023-04-03T00:27:57;16.17;;;8.13;;
34836;SDS011;21053;50.848;4.652;2023-04-03T00:30:23;14.25;;;7.80;;
34836;SDS011;21053;50.848;4.652;2023-04-03T00:32:49;17.15;;;8.57;;
34836;SDS011;21053;50.848;4.652;2023-04-03T00:35:18;16.75;;;7.82;;
34836;SDS011;21053;50.848;4.652;2023-04-03T00:37:48;19.52;;;8.48;;
34836;SDS011;21053;50.848;4.652;2023-04-03T00:40:18;13.77;;;8.85;;
34836;SDS011;21053;50.848;4.652;2023-04-03T00:42:50;16.48;;;8.20;;
34836;SDS011;21053;50.848;4.652;2023-04-03T00:45:34;12.88;;;7.57;;
34836;SDS011;21053;50.848;4.652;2023-04-03T00:48:03;15.02;;;7.68;;
34836;SDS011;21053;50.848;4.652;2023-04-03T00:50:31;14.38;;;8.23;;
34836;SDS011;21053;50.848;4.652;2023-04-03T00:53:00;17.10;;;8.25;;
34836;SDS011;21053;50.848;4.652;2023-04-03T00:55:28;12.07;;;7.70;;
34836;SDS011;21053;50.848;4.652;2023-04-03T01:00:25;14.50;;;7.88;;
34836;SDS011;21053;50.848;4.652;2023-04-03T01:02:52;17.67;;;7.50;;
34836;SDS011;21053;50.848;4.652;2023-04-03T01:05:18;14.93;;;7.60;;
34836;SDS011;21053;50.848;4.652;2023-04-03T01:10:18;13.15;;;7.88;;
34836;SDS011;21053;50.848;4.652;2023-04-03T01:15:18;13.02;;;7.30;;
34836;SDS011;21053;50.848;4.652;2023-04-03T01:17:50;15.57;;;6.50;;
34836;SDS011;21053;50.848;4.652;2023-04-03T01:20:39;12.80;;;6.50;;
34836;SDS011;21053;50.848;4.652;2023-04-03T01:23:20;16.20;;;7.20;;
34836;SDS011;21053;50.848;4.652;2023-04-03T01:25:53;13.82;;;7.95;;
34836;SDS011;21053;50.848;4.652;2023-04-03T01:28:31;15.25;;;7.63;;
34836;SDS011;21053;50.848;4.652;2023-04-03T01:36:26;15.85;;;7.88;;
34836;SDS011;21053;50.848;4.652;2023-04-03T01:38:55;13.60;;;7.85;;
34836;SDS011;21053;50.848;4.652;2023-04-03T01:41:23;13.00;;;7.72;;
34836;SDS011;21053;50.848;4.652;2023-04-03T01:43:50;15.18;;;8.35;;
34836;SDS011;21053;50.848;4.652;2023-04-03T01:46:18;13.77;;;7.80;;
34836;SDS011;21053;50.848;4.652;2023-04-03T01:48:47;17.08;;;7.53;;
34836;SDS011;21053;50.848;4.652;2023-04-03T01:51:13;13.98;;;7.40;;
34836;SDS011;21053;50.848;4.652;2023-04-03T01:53:42;18.50;;;7.20;;
34836;SDS011;21053;50.848;4.652;2023-04-03T01:56:07;12.63;;;7.35;;
34836;SDS011;21053;50.848;4.652;2023-04-03T01:58:34;15.82;;;7.43;;
34836;SDS011;21053;50.848;4.652;2023-04-03T02:01:01;14.55;;;7.32;;
34836;SDS011;21053;50.848;4.652;2023-04-03T02:03:28;12.43;;;6.90;;
34836;SDS011;21053;50.848;4.652;2023-04-03T02:05:57;18.27;;;7.40;;
34836;SDS011;21053;50.848;4.652;2023-04-03T02:08:25;17.60;;;7.60;;
34836;SDS011;21053;50.848;4.652;2023-04-03T02:10:53;17.85;;;7.35;;
34836;SDS011;21053;50.848;4.652;2023-04-03T02:13:21;15.40;;;7.03;;
34836;SDS011;21053;50.848;4.652;2023-04-03T02:15:47;14.00;;;7.15;;
34836;SDS011;21053;50.848;4.652;2023-04-03T02:18:13;14.55;;;7.40;;
34836;SDS011;21053;50.848;4.652;2023-04-03T02:20:41;13.88;;;7.90;;
34836;SDS011;21053;50.848;4.652;2023-04-03T02:23:07;13.73;;;7.40;;
34836;SDS011;21053;50.848;4.652;2023-04-03T02:25:36;12.75;;;7.18;;
34836;SDS011;21053;50.848;4.652;2023-04-03T02:28:05;13.18;;;7.40;;
34836;SDS011;21053;50.848;4.652;2023-04-03T02:30:31;12.07;;;6.93;;
34836;SDS011;21053;50.848;4.652;2023-04-03T02:32:58;11.73;;;6.70;;
34836;SDS011;21053;50.848;4.652;2023-04-03T02:37:53;11.32;;;6.90;;
34836;SDS011;21053;50.848;4.652;2023-04-03T02:40:22;14.00;;;7.15;;
34836;SDS011;21053;50.848;4.652;2023-04-03T02:42:49;15.20;;;7.93;;
34836;SDS011;21053;50.848;4.652;2023-04-03T02:45:16;13.38;;;7.18;;
34836;SDS011;21053;50.848;4.652;2023-04-03T02:47:43;12.38;;;7.18;;
34836;SDS011;21053;50.848;4.652;2023-04-03T02:50:09;14.80;;;8.00;;
34836;SDS011;21053;50.848;4.652;2023-04-03T02:52:36;11.93;;;7.70;;
34836;SDS011;21053;50.848;4.652;2023-04-03T02:55:03;13.10;;;7.75;;
34836;SDS011;21053;50.848;4.652;2023-04-03T02:57:33;10.90;;;7.63;;
34836;SDS011;21053;50.848;4.652;2023-04-03T03:00:00;15.20;;;7.80;;
34836;SDS011;21053;50.848;4.652;2023-04-03T03:02:26;16.85;;;8.07;;
34836;SDS011;21053;50.848;4.652;2023-04-03T03:04:54;16.45;;;8.18;;
34836;SDS011;21053;50.848;4.652;2023-04-03T03:09:52;13.18;;;7.43;;
34836;SDS011;21053;50.848;4.652;2023-04-03T03:12:18;13.48;;;7.45;;
34836;SDS011;21053;50.848;4.652;2023-04-03T03:14:48;13.68;;;7.72;;
34836;SDS011;21053;50.848;4.652;2023-04-03T03:17:15;18.80;;;7.93;;
34836;SDS011;21053;50.848;4.652;2023-04-03T03:19:42;13.68;;;7.80;;
34836;SDS011;21053;50.848;4.652;2023-04-03T03:22:08;11.88;;;7.20;;
34836;SDS011;21053;50.848;4.652;2023-04-03T03:24:37;13.65;;;7.57;;
34836;SDS011;21053;50.848;4.652;2023-04-03T03:27:03;10.65;;;6.78;;
34836;SDS011;21053;50.848;4.652;2023-04-03T03:29:30;12.95;;;7.28;;
34836;SDS011;21053;50.848;4.652;2023-04-03T03:31:59;11.45;;;6.85;;
34836;SDS011;21053;50.848;4.652;2023-04-03T03:34:26;14.23;;;6.68;;
34836;SDS011;21053;50.848;4.652;2023-04-03T03:36:52;13.43;;;7.75;;
34836;SDS011;21053;50.848;4.652;2023-04-03T03:39:20;19.48;;;7.82;;
34836;SDS011;21053;50.848;4.652;2023-04-03T03:41:48;15.10;;;8.30;;
34836;SDS011;21053;50.848;4.652;2023-04-03T03:44:15;16.17;;;7.65;;
34836;SDS011;21053;50.848;4.652;2023-04-03T03:46:42;14.48;;;7.47;;
34836;SDS011;21053;50.848;4.652;2023-04-03T03:49:09;14.15;;;7.70;;
34836;SDS011;21053;50.848;4.652;2023-04-03T03:51:36;15.98;;;7.72;;
34836;SDS011;21053;50.848;4.652;2023-04-03T03:54:03;12.32;;;7.47;;
34836;SDS011;21053;50.848;4.652;2023-04-03T03:56:32;11.50;;;7.40;;
34836;SDS011;21053;50.848;4.652;2023-04-03T03:58:58;12.73;;;7.32;;
34836;SDS011;21053;50.848;4.652;2023-04-03T04:01:26;13.52;;;7.78;;
34836;SDS011;21053;50.848;4.652;2023-04-03T04:03:52;15.63;;;7.97;;
34836;SDS011;21053;50.848;4.652;2023-04-03T04:06:20;13.00;;;7.43;;
34836;SDS011;21053;50.848;4.652;2023-04-03T04:11:18;13.77;;;7.20;;
34836;SDS011;21053;50.848;4.652;2023-04-03T04:13:44;11.40;;;7.30;;
34836;SDS011;21053;50.848;4.652;2023-04-03T04:16:09;13.15;;;7.32;;
34836;SDS011;21053;50.848;4.652;2023-04-03T04:18:35;15.65;;;7.70;;
34836;SDS011;21053;50.848;4.652;2023-04-03T04:21:00;12.15;;;7.40;;
34836;SDS011;21053;50.848;4.652;2023-04-03T04:23:27;13.52;;;7.60;;
34836;SDS011;21053;50.848;4.652;2023-04-03T04:25:53;15.65;;;8.07;;
34836;SDS011;21053;50.848;4.652;2023-04-03T04:28:19;20.15;;;7.95;;
34836;SDS011;21053;50.848;4.652;2023-04-03T04:30:48;14.77;;;7.55;;
34836;SDS011;21053;50.848;4.652;2023-04-03T04:33:13;13.32;;;7.53;;
34836;SDS011;21053;50.848;4.652;2023-04-03T04:35:41;12.77;;;7.43;;
34836;SDS011;21053;50.848;4.652;2023-04-03T04:38:08;17.08;;;8.50;;
34836;SDS011;21053;50.848;4.652;2023-04-03T04:40:34;14.98;;;7.25;;
34836;SDS011;21053;50.848;4.652;2023-04-03T04:43:03;19.27;;;8.07;;
34836;SDS011;21053;50.848;4.652;2023-04-03T04:45:31;16.40;;;7.35;;
34836;SDS011;21053;50.848;4.652;2023-04-03T04:50:27;15.82;;;7.70;;
34836;SDS011;21053;50.848;4.652;2023-04-03T04:52:54;20.38;;;8.60;;
34836;SDS011;21053;50.848;4.652;2023-04-03T04:55:20;17.42;;;7.40;;
34836;SDS011;21053;50.848;4.652;2023-04-03T04:57:47;16.42;;;8.90;;
34836;SDS011;21053;50.848;4.652;2023-04-03T05:00:14;14.48;;;7.90;;
34836;SDS011;21053;50.848;4.652;2023-04-03T05:02:42;17.88;;;8.65;;
34836;SDS011;21053;50.848;4.652;2023-04-03T05:05:11;12.80;;;8.13;;
34836;SDS011;21053;50.848;4.652;2023-04-03T05:07:37;12.25;;;7.60;;
34836;SDS011;21053;50.848;4.652;2023-04-03T05:10:03;12.20;;;7.38;;
34836;SDS011;21053;50.848;4.652;2023-04-03T05:12:29;11.00;;;7.00;;
34836;SDS011;21053;50.848;4.652;2023-04-03T05:14:55;19.73;;;8.23;;
34836;SDS011;21053;50.848;4.652;2023-04-03T05:17:21;15.82;;;8.35;;
34836;SDS011;21053;50.848;4.652;2023-04-03T05:19:48;13.57;;;7.72;;
34836;SDS011;21053;50.848;4.652;2023-04-03T05:22:16;14.73;;;8.25;;
34836;SDS011;21053;50.848;4.652;2023-04-03T05:24:42;17.70;;;8.52;;
34836;SDS011;21053;50.848;4.652;2023-04-03T05:27:07;13.70;;;7.95;;
34836;SDS011;21053;50.848;4.652;2023-04-03T05:29:34;21.17;;;8.48;;
34836;SDS011;21053;50.848;4.652;2023-04-03T05:32:00;15.02;;;8.77;;
34836;SDS011;21053;50.848;4.652;2023-04-03T05:34:25;13.73;;;8.07;;
34836;SDS011;21053;50.848;4.652;2023-04-03T05:36:54;19.02;;;8.50;;
34836;SDS011;21053;50.848;4.652;2023-04-03T05:39:22;14.68;;;7.60;;
34836;SDS011;21053;50.848;4.652;2023-04-03T05:41:51;18.23;;;8.27;;
34836;SDS011;21053;50.848;4.652;2023-04-03T05:46:49;15.82;;;8.07;;
34836;SDS011;21053;50.848;4.652;2023-04-03T05:49:20;17.73;;;8.90;;
34836;SDS011;21053;50.848;4.652;2023-04-03T05:51:48;15.98;;;8.77;;
34836;SDS011;21053;50.848;4.652;2023-04-03T05:54:19;16.20;;;8.65;;
34836;SDS011;21053;50.848;4.652;2023-04-03T05:56:49;29.52;;;10.07;;
34836;SDS011;21053;50.848;4.652;2023-04-03T05:59:17;19.15;;;9.57;;
34836;SDS011;21053;50.848;4.652;2023-04-03T06:01:43;18.85;;;9.20;;
34836;SDS011;21053;50.848;4.652;2023-04-03T06:04:11;14.32;;;8.75;;
34836;SDS011;21053;50.848;4.652;2023-04-03T06:06:56;15.18;;;9.05;;
34836;SDS011;21053;50.848;4.652;2023-04-03T06:09:26;19.57;;;8.50;;
34836;SDS011;21053;50.848;4.652;2023-04-03T06:11:56;16.27;;;8.70;;
34836;SDS011;21053;50.848;4.652;2023-04-03T06:14:26;14.30;;;8.43;;
34836;SDS011;21053;50.848;4.652;2023-04-03T06:16:58;16.92;;;9.02;;
34836;SDS011;21053;50.848;4.652;2023-04-03T06:22:04;23.15;;;10.10;;
34836;SDS011;21053;50.848;4.652;2023-04-03T06:24:33;18.65;;;10.65;;
34836;SDS011;21053;50.848;4.652;2023-04-03T06:27:02;16.98;;;9.73;;
34836;SDS011;21053;50.848;4.652;2023-04-03T06:29:29;19.88;;;10.60;;
34836;SDS011;21053;50.848;4.652;2023-04-03T06:31:58;19.80;;;10.15;;
34836;SDS011;21053;50.848;4.652;2023-04-03T06:34:26;21.60;;;11.27;;
34836;SDS011;21053;50.848;4.652;2023-04-03T06:36:53;20.60;;;10.70;;
34836;SDS011;21053;50.848;4.652;2023-04-03T06:39:20;18.90;;;10.18;;
34836;SDS011;21053;50.848;4.652;2023-04-03T06:41:48;20.88;;;10.38;;
34836;SDS011;21053;50.848;4.652;2023-04-03T06:44:17;20.80;;;11.60;;
34836;SDS011;21053;50.848;4.652;2023-04-03T06:46:43;26.75;;;11.75;;
34836;SDS011;21053;50.848;4.652;2023-04-03T06:49:11;22.80;;;12.98;;
34836;SDS011;21053;50.848;4.652;2023-04-03T06:51:37;25.58;;;14.32;;
34836;SDS011;21053;50.848;4.652;2023-04-03T06:54:03;31.13;;;15.48;;
34836;SDS011;21053;50.848;4.652;2023-04-03T06:56:32;29.02;;;15.60;;
34836;SDS011;21053;50.848;4.652;2023-04-03T06:59:00;29.05;;;15.27;;
34836;SDS011;21053;50.848;4.652;2023-04-03T07:01:32;32.13;;;15.80;;
34836;SDS011;21053;50.848;4.652;2023-04-03T07:03:58;28.08;;;15.35;;
34836;SDS011;21053;50.848;4.652;2023-04-03T07:06:24;33.42;;;15.35;;
34836;SDS011;21053;50.848;4.652;2023-04-03T07:08:55;28.52;;;16.15;;
34836;SDS011;21053;50.848;4.652;2023-04-03T07:11:22;31.30;;;16.15;;
34836;SDS011;21053;50.848;4.652;2023-04-03T07:13:49;31.58;;;15.10;;
34836;SDS011;21053;50.848;4.652;2023-04-03T07:16:18;31.63;;;14.90;;
34836;SDS011;21053;50.848;4.652;2023-04-03T07:18:46;26.55;;;14.25;;
34836;SDS011;21053;50.848;4.652;2023-04-03T07:21:14;30.30;;;11.93;;
34836;SDS011;21053;50.848;4.652;2023-04-03T07:23:40;30.30;;;13.00;;
34836;SDS011;21053;50.848;4.652;2023-04-03T07:26:07;20.13;;;12.40;;
34836;SDS011;21053;50.848;4.652;2023-04-03T07:28:36;25.95;;;11.50;;
34836;SDS011;21053;50.848;4.652;2023-04-03T07:31:06;23.33;;;11.05;;
34836;SDS011;21053;50.848;4.652;2023-04-03T07:33:36;19.00;;;10.07;;
34836;SDS011;21053;50.848;4.652;2023-04-03T07:36:03;22.27;;;9.75;;
34836;SDS011;21053;50.848;4.652;2023-04-03T07:38:35;21.67;;;9.73;;
34836;SDS011;21053;50.848;4.652;2023-04-03T07:41:04;16.27;;;8.80;;
34836;SDS011;21053;50.848;4.652;2023-04-03T07:43:31;15.57;;;7.55;;
34836;SDS011;21053;50.848;4.652;2023-04-03T07:45:59;17.30;;;8.77;;
34836;SDS011;21053;50.848;4.652;2023-04-03T07:48:28;12.95;;;7.50;;
34836;SDS011;21053;50.848;4.652;2023-04-03T07:51:01;18.73;;;6.90;;
34836;SDS011;21053;50.848;4.652;2023-04-03T07:53:32;15.63;;;7.20;;
34836;SDS011;21053;50.848;4.652;2023-04-03T07:55:58;12.10;;;6.03;;
34836;SDS011;21053;50.848;4.652;2023-04-03T07:58:29;11.98;;;6.15;;
34836;SDS011;21053;50.848;4.652;2023-04-03T08:00:55;13.55;;;5.93;;
34836;SDS011;21053;50.848;4.652;2023-04-03T08:05:53;15.10;;;5.90;;
34836;SDS011;21053;50.848;4.652;2023-04-03T08:10:50;12.70;;;5.22;;
34836;SDS011;21053;50.848;4.652;2023-04-03T08:13:18;12.27;;;4.97;;
34836;SDS011;21053;50.848;4.652;2023-04-03T08:15:45;9.60;;;4.32;;
34836;SDS011;21053;50.848;4.652;2023-04-03T08:18:14;10.32;;;4.55;;
34836;SDS011;21053;50.848;4.652;2023-04-03T08:20:41;9.57;;;3.88;;
34836;SDS011;21053;50.848;4.652;2023-04-03T08:23:08;10.50;;;4.53;;
34836;SDS011;21053;50.848;4.652;2023-04-03T08:25:38;14.77;;;4.53;;
34836;SDS011;21053;50.848;4.652;2023-04-03T08:30:40;11.48;;;4.40;;
34836;SDS011;21053;50.848;4.652;2023-04-03T08:33:08;10.20;;;4.07;;
34836;SDS011;21053;50.848;4.652;2023-04-03T08:35:41;9.13;;;4.20;;
34836;SDS011;21053;50.848;4.652;2023-04-03T08:38:10;9.85;;;4.22;;
34836;SDS011;21053;50.848;4.652;2023-04-03T08:40:37;7.85;;;3.72;;
34836;SDS011;21053;50.848;4.652;2023-04-03T08:45:50;10.38;;;3.78;;
34836;SDS011;21053;50.848;4.652;2023-04-03T08:48:30;8.30;;;3.55;;
34836;SDS011;21053;50.848;4.652;2023-04-03T08:51:19;11.23;;;3.67;;
34836;SDS011;21053;50.848;4.652;2023-04-03T08:53:52;10.40;;;3.17;;
34836;SDS011;21053;50.848;4.652;2023-04-03T08:56:26;11.32;;;3.45;;
34836;SDS011;21053;50.848;4.652;2023-04-03T08:58:55;6.10;;;3.28;;
34836;SDS011;21053;50.848;4.652;2023-04-03T09:01:38;9.15;;;3.45;;
34836;SDS011;21053;50.848;4.652;2023-04-03T09:04:10;8.43;;;3.50;;
34836;SDS011;21053;50.848;4.652;2023-04-03T09:06:39;10.18;;;3.47;;
34836;SDS011;21053;50.848;4.652;2023-04-03T09:11:44;8.15;;;3.15;;
34836;SDS011;21053;50.848;4.652;2023-04-03T09:17:06;9.13;;;2.92;;
34836;SDS011;21053;50.848;4.652;2023-04-03T09:22:26;6.05;;;2.40;;
34836;SDS011;21053;50.848;4.652;2023-04-03T09:25:05;4.78;;;2.20;;
34836;SDS011;21053;50.848;4.652;2023-04-03T09:27:44;6.88;;;2.50;;
34836;SDS011;21053;50.848;4.652;2023-04-03T09:30:17;8.38;;;2.75;;
34836;SDS011;21053;50.848;4.652;2023-04-03T09:32:46;8.10;;;2.30;;
34836;SDS011;21053;50.848;4.652;2023-04-03T09:35:19;5.68;;;2.30;;
34836;SDS011;21053;50.848;4.652;2023-04-03T09:37:52;4.90;;;2.40;;
34836;SDS011;21053;50.848;4.652;2023-04-03T09:42:51;7.55;;;2.67;;
34836;SDS011;21053;50.848;4.652;2023-04-03T09:45:36;6.82;;;2.40;;
34836;SDS011;21053;50.848;4.652;2023-04-03T09:48:12;4.65;;;2.40;;
34836;SDS011;21053;50.848;4.652;2023-04-03T09:51:01;7.72;;;2.63;;
34836;SDS011;21053;50.848;4.652;2023-04-03T09:56:04;10.00;;;2.70;;
34836;SDS011;21053;50.848;4.652;2023-04-03T10:06:42;10.30;;;2.55;;
34836;SDS011;21053;50.848;4.652;2023-04-03T10:11:57;4.28;;;2.55;;
34836;SDS011;21053;50.848;4.652;2023-04-03T10:14:24;3.67;;;2.30;;
34836;SDS011;21053;50.848;4.652;2023-04-03T10:17:01;9.25;;;2.63;;
34836;SDS011;21053;50.848;4.652;2023-04-03T10:20:06;9.48;;;3.88;;
34836;SDS011;21053;50.848;4.652;2023-04-03T10:28:20;4.45;;;2.20;;
34836;SDS011;21053;50.848;4.652;2023-04-03T10:31:05;5.60;;;2.55;;
34836;SDS011;21053;50.848;4.652;2023-04-03T10:38:54;6.95;;;2.50;;
34836;SDS011;21053;50.848;4.652;2023-04-03T10:41:50;7.53;;;2.78;;
34836;SDS011;21053;50.848;4.652;2023-04-03T10:58:44;4.60;;;2.25;;
34836;SDS011;21053;50.848;4.652;2023-04-03T11:03:53;3.88;;;2.05;;
34836;SDS011;21053;50.848;4.652;2023-04-03T11:06:24;7.85;;;1.92;;
34836;SDS011;21053;50.848;4.652;2023-04-03T11:09:03;3.40;;;1.73;;
34836;SDS011;21053;50.848;4.652;2023-04-03T11:12:13;4.53;;;1.98;;
34836;SDS011;21053;50.848;4.652;2023-04-03T11:14:50;3.95;;;2.00;;
34836;SDS011;21053;50.848;4.652;2023-04-03T11:17:24;4.65;;;1.90;;
34836;SDS011;21053;50.848;4.652;2023-04-03T11:22:58;4.28;;;2.03;;
34836;SDS011;21053;50.848;4.652;2023-04-03T11:28:02;7.55;;;2.20;;
34836;SDS011;21053;50.848;4.652;2023-04-03T11:30:39;8.05;;;2.40;;
34836;SDS011;21053;50.848;4.652;2023-04-03T11:36:21;8.07;;;2.08;;
34836;SDS011;21053;50.848;4.652;2023-04-03T11:38:52;7.50;;;2.15;;
34836;SDS011;21053;50.848;4.652;2023-04-03T11:41:29;3.20;;;1.63;;
34836;SDS011;21053;50.848;4.652;2023-04-03T11:44:25;4.13;;;1.70;;
34836;SDS011;21053;50.848;4.652;2023-04-03T11:47:05;7.45;;;2.13;;
34836;SDS011;21053;50.848;4.652;2023-04-03T12:03:29;4.65;;;2.00;;
34836;SDS011;21053;50.848;4.652;2023-04-03T12:08:52;7.47;;;2.35;;
34836;SDS011;21053;50.848;4.652;2023-04-03T12:11:26;12.95;;;2.10;;
34836;SDS011;21053;50.848;4.652;2023-04-03T12:16:34;6.47;;;2.15;;
34836;SDS011;21053;50.848;4.652;2023-04-03T12:19:27;3.73;;;1.80;;
34836;SDS011;21053;50.848;4.652;2023-04-03T12:22:12;5.43;;;1.90;;
34836;SDS011;21053;50.848;4.652;2023-04-03T12:27:30;3.42;;;1.67;;
34836;SDS011;21053;50.848;4.652;2023-04-03T12:30:13;4.93;;;2.08;;
34836;SDS011;21053;50.848;4.652;2023-04-03T12:35:47;3.53;;;1.58;;
34836;SDS011;21053;50.848;4.652;2023-04-03T12:44:09;4.93;;;1.42;;
34836;SDS011;21053;50.848;4.652;2023-04-03T12:46:52;5.28;;;1.60;;
34836;SDS011;21053;50.848;4.652;2023-04-03T12:51:56;1.63;;;1.40;;
34836;SDS011;21053;50.848;4.652;2023-04-03T12:55:22;2.90;;;1.40;;
34836;SDS011;21053;50.848;4.652;2023-04-03T12:57:48;3.17;;;1.35;;
34836;SDS011;21053;50.848;4.652;2023-04-03T13:00:33;2.10;;;1.40;;
34836;SDS011;21053;50.848;4.652;2023-04-03T13:03:03;2.78;;;1.50;;
34836;SDS011;21053;50.848;4.652;2023-04-03T13:05:34;9.48;;;1.80;;
34836;SDS011;21053;50.848;4.652;2023-04-03T13:08:04;3.45;;;1.73;;
34836;SDS011;21053;50.848;4.652;2023-04-03T13:10:43;3.55;;;1.65;;
34836;SDS011;21053;50.848;4.652;2023-04-03T13:13:25;7.15;;;2.05;;
34836;SDS011;21053;50.848;4.652;2023-04-03T13:20:57;4.82;;;2.05;;
34836;SDS011;21053;50.848;4.652;2023-04-03T13:23:27;8.65;;;2.17;;
34836;SDS011;21053;50.848;4.652;2023-04-03T13:25:58;6.25;;;1.90;;
34836;SDS011;21053;50.848;4.652;2023-04-03T13:28:30;6.72;;;2.25;;
34836;SDS011;21053;50.848;4.652;2023-04-03T13:31:04;7.45;;;2.22;;
34836;SDS011;21053;50.848;4.652;2023-04-03T13:36:44;17.88;;;2.22;;
34836;SDS011;21053;50.848;4.652;2023-04-03T13:39:26;5.70;;;1.88;;
34836;SDS011;21053;50.848;4.652;2023-04-03T13:41:57;7.47;;;2.00;;
34836;SDS011;21053;50.848;4.652;2023-04-03T13:49:37;4.22;;;1.80;;
34836;SDS011;21053;50.848;4.652;2023-04-03T13:55:22;6.72;;;1.80;;
34836;SDS011;21053;50.848;4.652;2023-04-03T13:58:01;5.03;;;1.92;;
34836;SDS011;21053;50.848;4.652;2023-04-03T14:00:53;7.78;;;2.30;;
34836;SDS011;21053;50.848;4.652;2023-04-03T14:04:11;2.47;;;1.58;;
34836;SDS011;21053;50.848;4.652;2023-04-03T14:09:31;9.48;;;1.90;;
34836;SDS011;21053;50.848;4.652;2023-04-03T14:14:51;4.18;;;1.63;;
34836;SDS011;21053;50.848;4.652;2023-04-03T14:17:18;5.95;;;2.03;;
34836;SDS011;21053;50.848;4.652;2023-04-03T14:19:48;7.88;;;2.10;;
34836;SDS011;21053;50.848;4.652;2023-04-03T14:22:17;3.92;;;1.50;;
34836;SDS011;21053;50.848;4.652;2023-04-03T14:24:43;4.47;;;1.80;;
34836;SDS011;21053;50.848;4.652;2023-04-03T14:27:16;6.45;;;1.80;;
34836;SDS011;21053;50.848;4.652;2023-04-03T14:29:46;20.38;;;2.50;;
34836;SDS011;21053;50.848;4.652;2023-04-03T14:32:15;6.57;;;2.30;;
34836;SDS011;21053;50.848;4.652;2023-04-03T14:34:42;6.30;;;1.90;;
34836;SDS011;21053;50.848;4.652;2023-04-03T14:37:10;6.13;;;1.77;;
34836;SDS011;21053;50.848;4.652;2023-04-03T14:39:41;5.15;;;1.90;;
34836;SDS011;21053;50.848;4.652;2023-04-03T14:42:18;4.90;;;2.00;;
34836;SDS011;21053;50.848;4.652;2023-04-03T14:44:48;4.60;;;1.75;;
34836;SDS011;21053;50.848;4.652;2023-04-03T14:47:18;5.43;;;1.80;;
34836;SDS011;21053;50.848;4.652;2023-04-03T14:49:46;9.23;;;2.22;;
34836;SDS011;21053;50.848;4.652;2023-04-03T14:52:21;4.60;;;2.13;;
34836;SDS011;21053;50.848;4.652;2023-04-03T14:54:51;3.15;;;1.60;;
34836;SDS011;21053;50.848;4.652;2023-04-03T14:57:20;9.15;;;2.20;;
34836;SDS011;21053;50.848;4.652;2023-04-03T14:59:50;6.07;;;2.10;;
34836;SDS011;21053;50.848;4.652;2023-04-03T15:02:35;4.18;;;1.90;;
34836;SDS011;21053;50.848;4.652;2023-04-03T15:05:06;5.43;;;2.10;;
34836;SDS011;21053;50.848;4.652;2023-04-03T15:07:36;14.18;;;2.67;;
34836;SDS011;21053;50.848;4.652;2023-04-03T15:10:21;4.80;;;1.90;;
34836;SDS011;21053;50.848;4.652;2023-04-03T15:15:21;6.70;;;2.20;;
34836;SDS011;21053;50.848;4.652;2023-04-03T15:17:51;6.03;;;2.10;;
34836;SDS011;21053;50.848;4.652;2023-04-03T15:20:24;3.90;;;1.95;;
34836;SDS011;21053;50.848;4.652;2023-04-03T15:22:51;11.07;;;2.15;;
34836;SDS011;21053;50.848;4.652;2023-04-03T15:25:19;6.47;;;2.50;;
34836;SDS011;21053;50.848;4.652;2023-04-03T15:27:45;4.57;;;1.95;;
34836;SDS011;21053;50.848;4.652;2023-04-03T15:30:14;6.43;;;2.30;;
34836;SDS011;21053;50.848;4.652;2023-04-03T15:32:42;3.78;;;1.98;;
34836;SDS011;21053;50.848;4.652;2023-04-03T15:35:08;9.18;;;2.35;;
34836;SDS011;21053;50.848;4.652;2023-04-03T15:37:34;7.55;;;2.38;;
34836;SDS011;21053;50.848;4.652;2023-04-03T15:40:00;5.18;;;2.10;;
34836;SDS011;21053;50.848;4.652;2023-04-03T15:42:27;9.60;;;2.55;;
34836;SDS011;21053;50.848;4.652;2023-04-03T15:44:55;6.15;;;2.30;;
34836;SDS011;21053;50.848;4.652;2023-04-03T15:47:23;9.20;;;2.53;;
34836;SDS011;21053;50.848;4.652;2023-04-03T15:49:51;11.38;;;2.38;;
34836;SDS011;21053;50.848;4.652;2023-04-03T15:52:17;7.63;;;2.40;;
34836;SDS011;21053;50.848;4.652;2023-04-03T15:54:44;7.78;;;2.10;;
34836;SDS011;21053;50.848;4.652;2023-04-03T15:57:11;5.57;;;2.35;;
34836;SDS011;21053;50.848;4.652;2023-04-03T15:59:37;6.78;;;2.40;;
34836;SDS011;21053;50.848;4.652;2023-04-03T16:02:04;6.90;;;2.38;;
34836;SDS011;21053;50.848;4.652;2023-04-03T16:04:36;6.03;;;2.42;;
34836;SDS011;21053;50.848;4.652;2023-04-03T16:07:04;4.75;;;2.33;;
34836;SDS011;21053;50.848;4.652;2023-04-03T16:09:31;8.18;;;2.40;;
34836;SDS011;21053;50.848;4.652;2023-04-03T16:11:59;6.43;;;2.60;;
34836;SDS011;21053;50.848;4.652;2023-04-03T16:14:26;9.02;;;2.80;;
34836;SDS011;21053;50.848;4.652;2023-04-03T16:16:54;8.45;;;2.60;;
34836;SDS011;21053;50.848;4.652;2023-04-03T16:19:22;9.65;;;2.65;;
34836;SDS011;21053;50.848;4.652;2023-04-03T16:21:50;5.82;;;2.58;;
34836;SDS011;21053;50.848;4.652;2023-04-03T16:24:18;11.85;;;2.72;;
34836;SDS011;21053;50.848;4.652;2023-04-03T16:26:50;5.10;;;2.25;;
34836;SDS011;21053;50.848;4.652;2023-04-03T16:29:18;7.30;;;3.03;;
34836;SDS011;21053;50.848;4.652;2023-04-03T16:34:15;6.90;;;2.10;;
34836;SDS011;21053;50.848;4.652;2023-04-03T16:39:12;5.68;;;2.40;;
34836;SDS011;21053;50.848;4.652;2023-04-03T16:41:39;5.63;;;2.33;;
34836;SDS011;21053;50.848;4.652;2023-04-03T16:44:07;6.28;;;2.10;;
34836;SDS011;21053;50.848;4.652;2023-04-03T16:46:33;6.10;;;2.55;;
34836;SDS011;21053;50.848;4.652;2023-04-03T16:49:00;7.55;;;2.80;;
34836;SDS011;21053;50.848;4.652;2023-04-03T16:51:29;7.68;;;2.45;;
34836;SDS011;21053;50.848;4.652;2023-04-03T16:53:57;8.35;;;2.47;;
34836;SDS011;21053;50.848;4.652;2023-04-03T16:56:26;3.55;;;2.08;;
34836;SDS011;21053;50.848;4.652;2023-04-03T16:58:53;3.88;;;2.00;;
34836;SDS011;21053;50.848;4.652;2023-04-03T17:01:21;7.80;;;2.30;;
34836;SDS011;21053;50.848;4.652;2023-04-03T17:03:47;4.75;;;2.13;;
34836;SDS011;21053;50.848;4.652;2023-04-03T17:06:17;4.38;;;2.10;;
34836;SDS011;21053;50.848;4.652;2023-04-03T17:08:47;11.00;;;2.58;;
34836;SDS011;21053;50.848;4.652;2023-04-03T17:11:16;8.30;;;2.30;;
34836;SDS011;21053;50.848;4.652;2023-04-03T17:13:45;4.80;;;2.05;;
34836;SDS011;21053;50.848;4.652;2023-04-03T17:16:12;7.05;;;2.28;;
34836;SDS011;21053;50.848;4.652;2023-04-03T17:18:41;7.72;;;2.50;;
34836;SDS011;21053;50.848;4.652;2023-04-03T17:21:08;7.25;;;2.60;;
34836;SDS011;21053;50.848;4.652;2023-04-03T17:23:35;6.03;;;2.35;;
34836;SDS011;21053;50.848;4.652;2023-04-03T17:26:02;12.32;;;2.20;;
34836;SDS011;21053;50.848;4.652;2023-04-03T17:28:29;8.63;;;2.45;;
34836;SDS011;21053;50.848;4.652;2023-04-03T17:30:57;7.68;;;2.00;;
34836;SDS011;21053;50.848;4.652;2023-04-03T17:33:31;7.32;;;2.25;;
34836;SDS011;21053;50.848;4.652;2023-04-03T17:36:00;5.38;;;1.90;;
34836;SDS011;21053;50.848;4.652;2023-04-03T17:38:30;5.90;;;2.35;;
34836;SDS011;21053;50.848;4.652;2023-04-03T17:41:00;9.93;;;2.50;;